Fyrbyggaren — SDJP — position and weather

sailwx.info

Track history (hours):
 
Tides and Currents Weather Stations Pressure Air Temp Water Temp Dewpoint Dewpoint Depression Visibility Wind Speed Wind Dir Waves Ship Positions

Fyrbyggaren

Last reported at 2018-May-23 16:00 UTC. Time now 2018-May-23 16:15 UTC.
Position N 59°25' E 018°25'.

Length 42 m; draft 4.2 m.

Type: Pollution control. MMSI: 265289000.

Date/timePositionNaut miles runAvg speedWind from/ knotsBaromVisibWave heightAir tempDewpointWater temp
2018-May-23 16:00N 59°25' E 018°25'2 4.9
2018-May-23 15:30N 59°26' E 018°29'510.6
2018-May-23 15:00N 59°23' E 018°36'5 9.4
2018-May-23 14:28N 59°21' E 018°46'510.0
2018-May-23 13:59N 59°17' E 018°43'510.5
2018-May-23 13:30N 59°13' E 018°36'510.7
2018-May-23 13:00N 59°08' E 018°30'510.5
2018-May-23 12:30N 59°05' E 018°22'510.7
2018-May-23 12:00N 59°01' E 018°16'510.7
2018-May-23 11:30N 58°57' E 018°09'5 9.8
2018-May-23 11:01N 58°55' E 018°01'2 1.6
2018-May-23 09:54N 58°54' E 017°57'2 5.2
2018-May-23 09:30N 58°54' E 018°01'20 5.9
2018-May-23 06:09N 58°36' E 018°14'2 0.7
2018-May-23 02:48N 58°37' E 018°18'311.1
2018-May-23 02:30N 58°38' E 018°12'611.1
2018-May-23 01:58N 58°41' E 018°02'511.2
2018-May-23 01:30N 58°43' E 017°53'510.9
2018-May-23 01:00N 58°47' E 017°46'5 9.5
2018-May-23 00:30N 58°49' E 017°38'0 0.2
2018-May-22 23:58N 58°49' E 017°38'0 0.0
2018-May-22 23:22N 58°49' E 017°38'0 0.0
2018-May-22 22:58N 58°49' E 017°38'0 0.0
2018-May-22 22:28N 58°49' E 017°38'0 0.0
2018-May-22 21:58N 58°49' E 017°38'0 0.0
2018-May-22 21:28N 58°49' E 017°38'0 0.0
2018-May-22 20:55N 58°49' E 017°38'0 0.0
2018-May-22 20:28N 58°49' E 017°38'0 0.0
2018-May-22 19:58N 58°49' E 017°38'0 0.0
2018-May-22 19:28N 58°49' E 017°37'0 0.0
2018-May-22 18:58N 58°49' E 017°38'0 0.0
2018-May-22 18:28N 58°49' E 017°38'0 0.0
2018-May-22 17:58N 58°49' E 017°38'0 0.0
2018-May-22 17:28N 58°49' E 017°38'0 0.0
2018-May-22 16:58N 58°49' E 017°38'0 0.0
2018-May-22 16:28N 58°49' E 017°38'0 0.0
2018-May-22 15:55N 58°49' E 017°38'0 0.0
2018-May-22 15:07N 58°49' E 017°37'0 0.0
2018-May-22 14:58N 58°49' E 017°37'0 0.0
2018-May-22 12:04N 58°49' E 017°38'0 0.0
2018-May-22 11:52N 58°49' E 017°37'0 0.0
2018-May-22 11:28N 58°49' E 017°37'0 0.0
2018-May-22 08:34N 58°49' E 017°38'0 0.0
2018-May-22 07:46N 58°49' E 017°38'0 0.0
2018-May-22 06:28N 58°49' E 017°38'0 0.0
2018-May-22 05:58N 58°49' E 017°38'0 0.0
2018-May-22 05:28N 58°49' E 017°38'0 0.0
2018-May-22 04:58N 58°49' E 017°38'0 0.0
2018-May-22 04:28N 58°49' E 017°38'0 0.0
2018-May-22 03:58N 58°49' E 017°38'0 0.0
2018-May-22 03:28N 58°49' E 017°38'0 0.0
2018-May-22 02:58N 58°49' E 017°38'0 0.0
2018-May-22 02:28N 58°49' E 017°38'0 0.0
2018-May-22 01:58N 58°49' E 017°38'0 0.0
2018-May-22 01:28N 58°49' E 017°38'0 0.0
2018-May-22 00:58N 58°49' E 017°38'0 0.0
2018-May-22 00:28N 58°49' E 017°38'0 0.0
2018-May-21 23:58N 58°49' E 017°38'0 0.0
2018-May-21 23:28N 58°49' E 017°38'0 0.0
2018-May-21 22:58N 58°49' E 017°38'0 0.0
2018-May-21 22:28N 58°49' E 017°38'0 0.0
2018-May-21 21:58N 58°49' E 017°38'0 0.0
2018-May-21 21:28N 58°49' E 017°38'0 0.0
2018-May-21 20:58N 58°49' E 017°38'0 0.0
2018-May-21 20:28N 58°49' E 017°38'0 0.0
2018-May-21 19:58N 58°49' E 017°38'0 0.0
2018-May-21 19:28N 58°49' E 017°38'0 0.0
2018-May-21 18:58N 58°49' E 017°38'0 0.0
2018-May-21 18:28N 58°49' E 017°38'0 0.0
2018-May-21 17:58N 58°49' E 017°38'0 0.0
2018-May-21 17:22N 58°49' E 017°38'0 0.0
2018-May-21 16:58N 58°49' E 017°38'0 0.0
2018-May-21 15:22N 58°49' E 017°38'0 0.0
2018-May-21 14:55N 58°49' E 017°38'0 0.0
2018-May-21 14:25N 58°49' E 017°38'0 0.0
2018-May-21 13:43N 58°49' E 017°38'0 0.0
2018-May-21 12:46N 58°49' E 017°38'0 0.0
2018-May-21 12:16N 58°49' E 017°38'0 0.0
2018-May-21 11:58N 58°49' E 017°38'0 0.3
2018-May-21 11:29N 58°49' E 017°38'1 1.4
2018-May-21 10:55N 58°49' E 017°37'3 3.7
2018-May-21 10:01N 58°46' E 017°42'2 9.7
2018-May-21 09:52N 58°45' E 017°44'2 5.6
2018-May-21 09:30N 58°44' E 017°46'3 3.0
2018-May-21 08:37N 58°44' E 017°41'0 0.3
2018-May-21 08:31N 58°44' E 017°41'2 3.5
2018-May-21 08:00N 58°45' E 017°44'2 3.9
2018-May-21 07:30N 58°47' E 017°45'6 6.9
2018-May-21 06:37N 58°50' E 017°35'0 0.1
2018-May-21 06:30N 58°50' E 017°35'1 2.0
2018-May-21 05:57N 58°50' E 017°32'0 0.0
2018-May-21 05:30N 58°50' E 017°32'0 0.0
2018-May-21 05:00N 58°50' E 017°32'0 0.0
2018-May-21 04:30N 58°50' E 017°32'0 0.0
2018-May-21 04:00N 58°50' E 017°32'0 0.0
2018-May-21 03:30N 58°50' E 017°32'0 0.0
2018-May-21 02:21N 58°50' E 017°32'0 0.0
2018-May-21 01:51N 58°50' E 017°32'0 0.0
2018-May-21 01:30N 58°50' E 017°32'0 0.0
2018-May-21 00:57N 58°50' E 017°32'0 0.0
2018-May-21 00:30N 58°50' E 017°32'0 0.0
2018-May-20 23:57N 58°50' E 017°32'0 0.0
2018-May-20 23:30N 58°50' E 017°32'0 0.0
2018-May-20 23:00N 58°50' E 017°32'0 0.0
2018-May-20 22:30N 58°50' E 017°32'0 0.0
2018-May-20 22:00N 58°50' E 017°32'0 0.0
2018-May-20 21:30N 58°50' E 017°32'0 0.0
2018-May-20 21:00N 58°50' E 017°32'0 0.0
2018-May-20 20:30N 58°50' E 017°32'0 0.0
2018-May-20 19:57N 58°50' E 017°32'0 0.0
2018-May-20 19:18N 58°50' E 017°32'0 0.0
2018-May-20 19:00N 58°50' E 017°32'0 0.0
2018-May-20 18:27N 58°50' E 017°32'0 0.0
2018-May-20 17:51N 58°50' E 017°32'0 0.0
2018-May-20 13:24N 58°50' E 017°32'0 0.0
2018-May-20 13:00N 58°50' E 017°32'0 0.0
2018-May-20 12:30N 58°50' E 017°32'0 0.0
2018-May-20 11:23N 58°50' E 017°32'0 0.0
2018-May-20 10:58N 58°50' E 017°32'1 1.6
2018-May-20 10:29N 58°50' E 017°33'3 5.7
2018-May-20 10:00N 58°48' E 017°37'4 7.7
2018-May-20 09:31N 58°47' E 017°44'1 2.1
2018-May-20 09:00N 58°48' E 017°46'4 8.6
2018-May-20 08:30N 58°44' E 017°50'1 1.0
2018-May-20 07:45N 58°43' E 017°50'1 3.2
2018-May-20 07:20N 58°45' E 017°50'1 2.2
2018-May-20 07:00N 58°45' E 017°49'1 2.5
2018-May-20 06:26N 58°46' E 017°50'1 1.3
2018-May-20 05:17N 58°47' E 017°49'0 0.0
2018-May-20 04:59N 58°47' E 017°49'0 0.0
2018-May-20 04:23N 58°47' E 017°49'0 0.0
2018-May-20 03:56N 58°47' E 017°49'0 0.0
2018-May-20 03:29N 58°47' E 017°49'0 0.0
2018-May-20 02:59N 58°47' E 017°49'0 0.0
2018-May-20 02:29N 58°47' E 017°49'0 0.0
2018-May-19 23:50N 58°47' E 017°49'0 0.0
2018-May-19 18:23N 58°47' E 017°49'1 2.5
2018-May-19 17:56N 58°46' E 017°48'410.7
2018-May-19 17:30N 58°42' E 017°52'810.4
2018-May-19 16:42N 58°34' E 017°55'0 0.0
2018-May-19 16:26N 58°34' E 017°55'8 3.3
2018-May-19 14:02N 58°30' E 018°07'6 8.9
2018-May-19 13:21N 58°36' E 018°06'411.0
2018-May-19 12:57N 58°40' E 018°05'511.1
2018-May-19 12:30N 58°45' E 018°04'611.1
2018-May-19 12:00N 58°50' E 018°03'3 5.8
2018-May-19 11:30N 58°53' E 018°02'1 2.0
2018-May-19 11:01N 58°54' E 018°01'2 4.4
2018-May-19 10:30N 58°55' E 018°05'2 3.7
2018-May-19 10:01N 58°57' E 018°02'3 6.7
2018-May-19 09:30N 58°57' E 018°09'1 1.4
2018-May-19 09:01N 58°56' E 018°10'2 4.5
2018-May-19 08:31N 58°57' E 018°13'2 3.2
2018-May-19 08:01N 58°59' E 018°14'3 5.0
2018-May-19 07:29N 58°60' E 018°19'3 5.6
2018-May-19 07:01N 59°02' E 018°17'2 4.9
2018-May-19 06:30N 59°02' E 018°12'1 1.5
2018-May-19 06:00N 59°02' E 018°14'0 0.0
2018-May-19 05:24N 59°02' E 018°14'0 0.0
2018-May-19 05:00N 59°02' E 018°14'0 0.0
2018-May-19 04:30N 59°02' E 018°14'0 0.0
2018-May-19 04:00N 59°02' E 018°14'0 0.0
2018-May-19 03:24N 59°02' E 018°14'0 0.0
2018-May-19 03:00N 59°02' E 018°14'0 0.0
2018-May-19 02:30N 59°02' E 018°14'0 0.0
2018-May-19 02:00N 59°02' E 018°14'0 0.0
2018-May-19 01:30N 59°02' E 018°14'0 0.0
2018-May-19 01:00N 59°02' E 018°14'0 0.0
2018-May-19 00:30N 59°02' E 018°14'0 0.0
2018-May-19 00:00N 59°02' E 018°14'0 0.0
2018-May-18 23:30N 59°02' E 018°14'0 0.0
2018-May-18 23:00N 59°02' E 018°14'0 0.0
2018-May-18 22:30N 59°02' E 018°14'0 0.0
2018-May-18 22:00N 59°02' E 018°14'0 0.0
2018-May-18 21:30N 59°02' E 018°14'0 0.0
2018-May-18 21:00N 59°02' E 018°14'0 0.0
2018-May-18 20:30N 59°02' E 018°14'0 0.0
2018-May-18 20:00N 59°02' E 018°14'0 0.0
2018-May-18 19:30N 59°02' E 018°14'0 0.0
2018-May-18 19:00N 59°02' E 018°14'0 0.0
2018-May-18 18:24N 59°02' E 018°14'0 0.0
2018-May-18 18:00N 59°02' E 018°14'1 2.6
2018-May-18 17:30N 59°01' E 018°14'510.5
2018-May-18 17:00N 58°57' E 018°08'510.5
2018-May-18 16:30N 58°52' E 018°03'611.0
2018-May-18 16:00N 58°47' E 018°07'811.5
2018-May-18 15:15N 58°40' E 018°15'148 3.7
2018-May-16 22:47N 56°13' E 017°30'311.1
2018-May-16 22:30N 56°11' E 017°26'711.2
2018-May-16 21:52N 56°06' E 017°18'411.2
2018-May-16 21:30N 56°03' E 017°13'611.3
2018-May-16 20:59N 55°58' E 017°06'4411.0
2018-May-16 17:01N 55°25' E 016°15'010.8
2018-May-16 16:59N 55°25' E 016°14'1310.7
2018-May-16 15:46N 55°15' E 015°59'0 0.0
2018-May-16 15:30N 55°15' E 015°59'0 0.1
2018-May-16 15:00N 55°15' E 015°59'7 6.9
2018-May-16 14:00N 55°10' E 015°51'510.8
2018-May-16 13:30N 55°08' E 015°42'510.8
2018-May-16 13:00N 55°06' E 015°33'611.2
2018-May-16 12:30N 55°03' E 015°25'511.0
2018-May-16 12:00N 55°00' E 015°17'510.8
2018-May-16 11:30N 54°58' E 015°09'510.6
2018-May-16 11:00N 54°58' E 014°59'510.8
2018-May-16 10:30N 54°60' E 014°50'511.0
2018-May-16 10:00N 55°02' E 014°42'4 8.1
2018-May-16 09:30N 55°06' E 014°42'0 0.1
2018-May-16 09:00N 55°06' E 014°42'0 0.0
2018-May-16 08:30N 55°06' E 014°42'0 0.0
2018-May-16 08:00N 55°06' E 014°42'0 0.0
2018-May-16 07:30N 55°06' E 014°42'0 0.0
2018-May-16 07:00N 55°06' E 014°42'0 0.0
2018-May-16 06:30N 55°06' E 014°42'0 0.0
2018-May-16 06:00N 55°06' E 014°42'0 0.0
2018-May-16 05:30N 55°06' E 014°42'0 0.0
2018-May-16 05:00N 55°06' E 014°42'0 0.0
2018-May-16 04:30N 55°06' E 014°42'0 0.0
2018-May-16 04:00N 55°06' E 014°42'0 0.0
2018-May-16 03:30N 55°06' E 014°42'0 0.0
2018-May-16 03:00N 55°06' E 014°42'0 0.0
2018-May-16 02:30N 55°06' E 014°42'0 0.0
2018-May-16 02:00N 55°06' E 014°42'0 0.0
2018-May-16 01:30N 55°06' E 014°42'0 0.0
2018-May-16 01:00N 55°06' E 014°42'0 0.0
2018-May-16 00:30N 55°06' E 014°42'0 0.0
2018-May-16 00:00N 55°06' E 014°42'0 0.0
2018-May-15 23:30N 55°06' E 014°42'0 0.0
2018-May-15 23:00N 55°06' E 014°42'0 0.0
2018-May-15 22:30N 55°06' E 014°42'0 0.0
2018-May-15 22:00N 55°06' E 014°42'0 0.0
2018-May-15 21:30N 55°06' E 014°42'0 0.0
2018-May-15 21:00N 55°06' E 014°42'0 0.0
2018-May-15 20:30N 55°06' E 014°42'0 0.0
2018-May-15 20:00N 55°06' E 014°42'0 0.0
2018-May-15 19:30N 55°06' E 014°42'0 0.0
2018-May-15 19:00N 55°06' E 014°42'2 4.8
2018-May-15 18:30N 55°05' E 014°38'4 8.4
2018-May-15 18:00N 55°04' E 014°31'610.9
2018-May-15 17:29N 55°03' E 014°21'510.9
2018-May-15 17:00N 55°02' E 014°12'5 8.7
2018-May-15 16:28N 55°01' E 014°04'1 2.4
2018-May-15 15:52N 55°01' E 014°02'610.5
2018-May-15 15:19N 55°04' E 013°53'710.3
2018-May-15 14:38N 55°07' E 013°42'110.1
2018-May-15 14:30N 55°08' E 013°40'18 6.9
2018-May-15 11:52N 55°12' E 013°09'2 5.8
2018-May-15 11:29N 55°14' E 013°07'4 7.9
2018-May-15 11:00N 55°17' E 013°10'5 7.4
2018-May-15 10:20N 55°17' E 013°19'1 2.5
2018-May-15 09:54N 55°17' E 013°17'3 7.1
2018-May-15 09:30N 55°14' E 013°17'1 2.4
2018-May-15 09:01N 55°14' E 013°16'2 4.7
2018-May-15 08:30N 55°14' E 013°20'2 4.5
2018-May-15 08:01N 55°14' E 013°24'1 2.8
2018-May-15 07:30N 55°14' E 013°26'3 5.6
2018-May-15 07:00N 55°15' E 013°31'4 8.1
2018-May-15 06:29N 55°14' E 013°38'4 6.1
2018-May-15 05:47N 55°14' E 013°46'311.1
2018-May-15 05:30N 55°14' E 013°51'611.1
2018-May-15 05:00N 55°14' E 014°01'611.2
2018-May-15 04:30N 55°14' E 014°11'510.2
2018-May-15 04:00N 55°16' E 014°18'611.1
2018-May-15 03:30N 55°21' E 014°24'610.1
2018-May-15 02:57N 55°26' E 014°25'511.2
2018-May-15 02:30N 55°31' E 014°22'3 1.3
2018-May-15 00:32N 55°33' E 014°21'0 0.0
2018-May-15 00:14N 55°33' E 014°21'0 0.0
2018-May-14 23:59N 55°33' E 014°21'0 0.0
2018-May-14 23:29N 55°33' E 014°21'0 0.0
2018-May-14 22:56N 55°33' E 014°21'0 0.0
2018-May-14 18:53N 55°33' E 014°21'0 0.0
2018-May-14 18:17N 55°33' E 014°21'0 0.0
2018-May-14 17:47N 55°33' E 014°21'0 0.0
2018-May-14 17:18N 55°33' E 014°21'1 2.1
2018-May-14 17:00N 55°34' E 014°22'510.8
2018-May-14 16:30N 55°35' E 014°32'510.9
2018-May-14 16:01N 55°36' E 014°41'611.2
2018-May-14 15:30N 55°37' E 014°51'1 1.0
2018-May-14 15:00N 55°37' E 014°52'4 7.4
2018-May-14 14:30N 55°38' E 014°58'511.0
2018-May-14 14:01N 55°39' E 015°07'510.9
2018-May-14 13:30N 55°41' E 015°17'511.0
2018-May-14 13:00N 55°42' E 015°26'611.1
2018-May-14 12:31N 55°44' E 015°36'5 9.1
2018-May-14 12:01N 55°45' E 015°44'3 5.8
2018-May-14 11:30N 55°48' E 015°42'2 3.3
2018-May-14 11:01N 55°49' E 015°41'4 7.5
2018-May-14 10:30N 55°50' E 015°48'0 0.1
2018-May-14 10:01N 55°50' E 015°48'2 3.1
2018-May-14 09:30N 55°50' E 015°51'3 5.2
2018-May-14 09:00N 55°51' E 015°55'2 4.9
2018-May-14 08:30N 55°52' E 015°50'2 3.4
2018-May-14 08:01N 55°52' E 015°48'2 3.6
2018-May-14 07:30N 55°52' E 015°45'2 4.5
2018-May-14 07:00N 55°55' E 015°45'2 3.9
2018-May-14 06:30N 55°55' E 015°48'2 4.7
2018-May-14 06:00N 55°54' E 015°52'4 7.2
2018-May-14 05:30N 55°57' E 015°54'3 5.7
2018-May-14 05:01N 55°58' E 015°49'2 4.3
2018-May-14 04:28N 55°58' E 015°44'0 0.0
2018-May-14 03:58N 55°58' E 015°44'0 0.0
2018-May-14 03:28N 55°58' E 015°44'0 0.0
2018-May-14 02:58N 55°58' E 015°44'0 0.0
2018-May-14 02:28N 55°58' E 015°44'0 0.0
2018-May-14 01:58N 55°58' E 015°44'0 0.0
2018-May-14 01:28N 55°58' E 015°44'0 0.0
2018-May-14 00:58N 55°58' E 015°44'0 0.0
2018-May-14 00:28N 55°58' E 015°44'0 0.0
2018-May-13 23:58N 55°58' E 015°44'0 0.0
2018-May-13 23:28N 55°58' E 015°44'0 0.0
2018-May-13 22:58N 55°58' E 015°44'0 0.0
2018-May-13 22:28N 55°58' E 015°44'0 0.0
2018-May-13 21:58N 55°58' E 015°44'0 0.0
2018-May-13 21:25N 55°58' E 015°44'0 0.0
2018-May-13 20:58N 55°58' E 015°44'0 0.0
2018-May-13 20:28N 55°58' E 015°44'0 0.0
2018-May-13 19:58N 55°58' E 015°44'0 0.0
2018-May-13 19:28N 55°58' E 015°44'0 0.0
2018-May-13 18:58N 55°58' E 015°44'2 4.6
2018-May-13 18:31N 55°58' E 015°48'611.6
2018-May-13 18:01N 55°60' E 015°58'611.6
2018-May-13 17:31N 56°01' E 016°08'611.6
2018-May-13 17:01N 56°03' E 016°18'611.6
2018-May-13 16:31N 56°05' E 016°28'611.5
2018-May-13 16:00N 56°07' E 016°37'  
Track history (hours):
 
Tides and Currents Weather Stations Pressure Air Temp Water Temp Dewpoint Dewpoint Depression Visibility Wind Speed Wind Dir Waves Ship Positions

Fyrbyggaren

Last reported at 2018-May-23 16:00 UTC. Time now 2018-May-23 16:15 UTC.
Position N 59°25' E 018°25'.

Length 42 m; draft 4.2 m.

Type: Pollution control. MMSI: 265289000.

Date/timePositionNaut miles runAvg speedWind from/ knotsBaromVisibWave heightAir tempDewpointWater temp
2018-May-23 16:00N 59°25' E 018°25'2 4.9
2018-May-23 15:30N 59°26' E 018°29'510.6
2018-May-23 15:00N 59°23' E 018°36'5 9.4
2018-May-23 14:28N 59°21' E 018°46'510.0
2018-May-23 13:59N 59°17' E 018°43'510.5
2018-May-23 13:30N 59°13' E 018°36'510.7
2018-May-23 13:00N 59°08' E 018°30'510.5
2018-May-23 12:30N 59°05' E 018°22'510.7
2018-May-23 12:00N 59°01' E 018°16'510.7
2018-May-23 11:30N 58°57' E 018°09'5 9.8
2018-May-23 11:01N 58°55' E 018°01'2 1.6
2018-May-23 09:54N 58°54' E 017°57'2 5.2
2018-May-23 09:30N 58°54' E 018°01'20 5.9
2018-May-23 06:09N 58°36' E 018°14'2 0.7
2018-May-23 02:48N 58°37' E 018°18'311.1
2018-May-23 02:30N 58°38' E 018°12'611.1
2018-May-23 01:58N 58°41' E 018°02'511.2
2018-May-23 01:30N 58°43' E 017°53'510.9
2018-May-23 01:00N 58°47' E 017°46'5 9.5
2018-May-23 00:30N 58°49' E 017°38'0 0.2
2018-May-22 23:58N 58°49' E 017°38'0 0.0
2018-May-22 23:22N 58°49' E 017°38'0 0.0
2018-May-22 22:58N 58°49' E 017°38'0 0.0
2018-May-22 22:28N 58°49' E 017°38'0 0.0
2018-May-22 21:58N 58°49' E 017°38'0 0.0
2018-May-22 21:28N 58°49' E 017°38'0 0.0
2018-May-22 20:55N 58°49' E 017°38'0 0.0
2018-May-22 20:28N 58°49' E 017°38'0 0.0
2018-May-22 19:58N 58°49' E 017°38'0 0.0
2018-May-22 19:28N 58°49' E 017°37'0 0.0
2018-May-22 18:58N 58°49' E 017°38'0 0.0
2018-May-22 18:28N 58°49' E 017°38'0 0.0
2018-May-22 17:58N 58°49' E 017°38'0 0.0
2018-May-22 17:28N 58°49' E 017°38'0 0.0
2018-May-22 16:58N 58°49' E 017°38'0 0.0
2018-May-22 16:28N 58°49' E 017°38'0 0.0
2018-May-22 15:55N 58°49' E 017°38'0 0.0
2018-May-22 15:07N 58°49' E 017°37'0 0.0
2018-May-22 14:58N 58°49' E 017°37'0 0.0
2018-May-22 12:04N 58°49' E 017°38'0 0.0
2018-May-22 11:52N 58°49' E 017°37'0 0.0
2018-May-22 11:28N 58°49' E 017°37'0 0.0
2018-May-22 08:34N 58°49' E 017°38'0 0.0
2018-May-22 07:46N 58°49' E 017°38'0 0.0
2018-May-22 06:28N 58°49' E 017°38'0 0.0
2018-May-22 05:58N 58°49' E 017°38'0 0.0
2018-May-22 05:28N 58°49' E 017°38'0 0.0
2018-May-22 04:58N 58°49' E 017°38'0 0.0
2018-May-22 04:28N 58°49' E 017°38'0 0.0
2018-May-22 03:58N 58°49' E 017°38'0 0.0
2018-May-22 03:28N 58°49' E 017°38'0 0.0
2018-May-22 02:58N 58°49' E 017°38'0 0.0
2018-May-22 02:28N 58°49' E 017°38'0 0.0
2018-May-22 01:58N 58°49' E 017°38'0 0.0
2018-May-22 01:28N 58°49' E 017°38'0 0.0
2018-May-22 00:58N 58°49' E 017°38'0 0.0
2018-May-22 00:28N 58°49' E 017°38'0 0.0
2018-May-21 23:58N 58°49' E 017°38'0 0.0
2018-May-21 23:28N 58°49' E 017°38'0 0.0
2018-May-21 22:58N 58°49' E 017°38'0 0.0
2018-May-21 22:28N 58°49' E 017°38'0 0.0
2018-May-21 21:58N 58°49' E 017°38'0 0.0
2018-May-21 21:28N 58°49' E 017°38'0 0.0
2018-May-21 20:58N 58°49' E 017°38'0 0.0
2018-May-21 20:28N 58°49' E 017°38'0 0.0
2018-May-21 19:58N 58°49' E 017°38'0 0.0
2018-May-21 19:28N 58°49' E 017°38'0 0.0
2018-May-21 18:58N 58°49' E 017°38'0 0.0
2018-May-21 18:28N 58°49' E 017°38'0 0.0
2018-May-21 17:58N 58°49' E 017°38'0 0.0
2018-May-21 17:22N 58°49' E 017°38'0 0.0
2018-May-21 16:58N 58°49' E 017°38'0 0.0
2018-May-21 15:22N 58°49' E 017°38'0 0.0
2018-May-21 14:55N 58°49' E 017°38'0 0.0
2018-May-21 14:25N 58°49' E 017°38'0 0.0
2018-May-21 13:43N 58°49' E 017°38'0 0.0
2018-May-21 12:46N 58°49' E 017°38'0 0.0
2018-May-21 12:16N 58°49' E 017°38'0 0.0
2018-May-21 11:58N 58°49' E 017°38'0 0.3
2018-May-21 11:29N 58°49' E 017°38'1 1.4
2018-May-21 10:55N 58°49' E 017°37'3 3.7
2018-May-21 10:01N 58°46' E 017°42'2 9.7
2018-May-21 09:52N 58°45' E 017°44'2 5.6
2018-May-21 09:30N 58°44' E 017°46'3 3.0
2018-May-21 08:37N 58°44' E 017°41'0 0.3
2018-May-21 08:31N 58°44' E 017°41'2 3.5
2018-May-21 08:00N 58°45' E 017°44'2 3.9
2018-May-21 07:30N 58°47' E 017°45'6 6.9
2018-May-21 06:37N 58°50' E 017°35'0 0.1
2018-May-21 06:30N 58°50' E 017°35'1 2.0
2018-May-21 05:57N 58°50' E 017°32'0 0.0
2018-May-21 05:30N 58°50' E 017°32'0 0.0
2018-May-21 05:00N 58°50' E 017°32'0 0.0
2018-May-21 04:30N 58°50' E 017°32'0 0.0
2018-May-21 04:00N 58°50' E 017°32'0 0.0
2018-May-21 03:30N 58°50' E 017°32'0 0.0
2018-May-21 02:21N 58°50' E 017°32'0 0.0
2018-May-21 01:51N 58°50' E 017°32'0 0.0
2018-May-21 01:30N 58°50' E 017°32'0 0.0
2018-May-21 00:57N 58°50' E 017°32'0 0.0
2018-May-21 00:30N 58°50' E 017°32'0 0.0
2018-May-20 23:57N 58°50' E 017°32'0 0.0
2018-May-20 23:30N 58°50' E 017°32'0 0.0
2018-May-20 23:00N 58°50' E 017°32'0 0.0
2018-May-20 22:30N 58°50' E 017°32'0 0.0
2018-May-20 22:00N 58°50' E 017°32'0 0.0
2018-May-20 21:30N 58°50' E 017°32'0 0.0
2018-May-20 21:00N 58°50' E 017°32'0 0.0
2018-May-20 20:30N 58°50' E 017°32'0 0.0
2018-May-20 19:57N 58°50' E 017°32'0 0.0
2018-May-20 19:18N 58°50' E 017°32'0 0.0
2018-May-20 19:00N 58°50' E 017°32'0 0.0
2018-May-20 18:27N 58°50' E 017°32'0 0.0
2018-May-20 17:51N 58°50' E 017°32'0 0.0
2018-May-20 13:24N 58°50' E 017°32'0 0.0
2018-May-20 13:00N 58°50' E 017°32'0 0.0
2018-May-20 12:30N 58°50' E 017°32'0 0.0
2018-May-20 11:23N 58°50' E 017°32'0 0.0
2018-May-20 10:58N 58°50' E 017°32'1 1.6
2018-May-20 10:29N 58°50' E 017°33'3 5.7
2018-May-20 10:00N 58°48' E 017°37'4 7.7
2018-May-20 09:31N 58°47' E 017°44'1 2.1
2018-May-20 09:00N 58°48' E 017°46'4 8.6
2018-May-20 08:30N 58°44' E 017°50'1 1.0
2018-May-20 07:45N 58°43' E 017°50'1 3.2
2018-May-20 07:20N 58°45' E 017°50'1 2.2
2018-May-20 07:00N 58°45' E 017°49'1 2.5
2018-May-20 06:26N 58°46' E 017°50'1 1.3
2018-May-20 05:17N 58°47' E 017°49'0 0.0
2018-May-20 04:59N 58°47' E 017°49'0 0.0
2018-May-20 04:23N 58°47' E 017°49'0 0.0
2018-May-20 03:56N 58°47' E 017°49'0 0.0
2018-May-20 03:29N 58°47' E 017°49'0 0.0
2018-May-20 02:59N 58°47' E 017°49'0 0.0
2018-May-20 02:29N 58°47' E 017°49'0 0.0
2018-May-19 23:50N 58°47' E 017°49'0 0.0
2018-May-19 18:23N 58°47' E 017°49'1 2.5
2018-May-19 17:56N 58°46' E 017°48'410.7
2018-May-19 17:30N 58°42' E 017°52'810.4
2018-May-19 16:42N 58°34' E 017°55'0 0.0
2018-May-19 16:26N 58°34' E 017°55'8 3.3
2018-May-19 14:02N 58°30' E 018°07'6 8.9
2018-May-19 13:21N 58°36' E 018°06'411.0
2018-May-19 12:57N 58°40' E 018°05'511.1
2018-May-19 12:30N 58°45' E 018°04'611.1
2018-May-19 12:00N 58°50' E 018°03'3 5.8
2018-May-19 11:30N 58°53' E 018°02'1 2.0
2018-May-19 11:01N 58°54' E 018°01'2 4.4
2018-May-19 10:30N 58°55' E 018°05'2 3.7
2018-May-19 10:01N 58°57' E 018°02'3 6.7
2018-May-19 09:30N 58°57' E 018°09'1 1.4
2018-May-19 09:01N 58°56' E 018°10'2 4.5
2018-May-19 08:31N 58°57' E 018°13'2 3.2
2018-May-19 08:01N 58°59' E 018°14'3 5.0
2018-May-19 07:29N 58°60' E 018°19'3 5.6
2018-May-19 07:01N 59°02' E 018°17'2 4.9
2018-May-19 06:30N 59°02' E 018°12'1 1.5
2018-May-19 06:00N 59°02' E 018°14'0 0.0
2018-May-19 05:24N 59°02' E 018°14'0 0.0
2018-May-19 05:00N 59°02' E 018°14'0 0.0
2018-May-19 04:30N 59°02' E 018°14'0 0.0
2018-May-19 04:00N 59°02' E 018°14'0 0.0
2018-May-19 03:24N 59°02' E 018°14'0 0.0
2018-May-19 03:00N 59°02' E 018°14'0 0.0
2018-May-19 02:30N 59°02' E 018°14'0 0.0
2018-May-19 02:00N 59°02' E 018°14'0 0.0
2018-May-19 01:30N 59°02' E 018°14'0 0.0
2018-May-19 01:00N 59°02' E 018°14'0 0.0
2018-May-19 00:30N 59°02' E 018°14'0 0.0
2018-May-19 00:00N 59°02' E 018°14'0 0.0
2018-May-18 23:30N 59°02' E 018°14'0 0.0
2018-May-18 23:00N 59°02' E 018°14'0 0.0
2018-May-18 22:30N 59°02' E 018°14'0 0.0
2018-May-18 22:00N 59°02' E 018°14'0 0.0
2018-May-18 21:30N 59°02' E 018°14'0 0.0
2018-May-18 21:00N 59°02' E 018°14'0 0.0
2018-May-18 20:30N 59°02' E 018°14'0 0.0
2018-May-18 20:00N 59°02' E 018°14'0 0.0
2018-May-18 19:30N 59°02' E 018°14'0 0.0
2018-May-18 19:00N 59°02' E 018°14'0 0.0
2018-May-18 18:24N 59°02' E 018°14'0 0.0
2018-May-18 18:00N 59°02' E 018°14'1 2.6
2018-May-18 17:30N 59°01' E 018°14'510.5
2018-May-18 17:00N 58°57' E 018°08'510.5
2018-May-18 16:30N 58°52' E 018°03'611.0
2018-May-18 16:00N 58°47' E 018°07'811.5
2018-May-18 15:15N 58°40' E 018°15'148 3.7
2018-May-16 22:47N 56°13' E 017°30'311.1
2018-May-16 22:30N 56°11' E 017°26'711.2
2018-May-16 21:52N 56°06' E 017°18'411.2
2018-May-16 21:30N 56°03' E 017°13'611.3
2018-May-16 20:59N 55°58' E 017°06'4411.0
2018-May-16 17:01N 55°25' E 016°15'010.8
2018-May-16 16:59N 55°25' E 016°14'1310.7
2018-May-16 15:46N 55°15' E 015°59'0 0.0
2018-May-16 15:30N 55°15' E 015°59'0 0.1
2018-May-16 15:00N 55°15' E 015°59'7 6.9
2018-May-16 14:00N 55°10' E 015°51'510.8
2018-May-16 13:30N 55°08' E 015°42'510.8
2018-May-16 13:00N 55°06' E 015°33'611.2
2018-May-16 12:30N 55°03' E 015°25'511.0
2018-May-16 12:00N 55°00' E 015°17'510.8
2018-May-16 11:30N 54°58' E 015°09'510.6
2018-May-16 11:00N 54°58' E 014°59'510.8
2018-May-16 10:30N 54°60' E 014°50'511.0
2018-May-16 10:00N 55°02' E 014°42'4 8.1
2018-May-16 09:30N 55°06' E 014°42'0 0.1
2018-May-16 09:00N 55°06' E 014°42'0 0.0
2018-May-16 08:30N 55°06' E 014°42'0 0.0
2018-May-16 08:00N 55°06' E 014°42'0 0.0
2018-May-16 07:30N 55°06' E 014°42'0 0.0
2018-May-16 07:00N 55°06' E 014°42'0 0.0
2018-May-16 06:30N 55°06' E 014°42'0 0.0
2018-May-16 06:00N 55°06' E 014°42'0 0.0
2018-May-16 05:30N 55°06' E 014°42'0 0.0
2018-May-16 05:00N 55°06' E 014°42'0 0.0
2018-May-16 04:30N 55°06' E 014°42'0 0.0
2018-May-16 04:00N 55°06' E 014°42'0 0.0
2018-May-16 03:30N 55°06' E 014°42'0 0.0
2018-May-16 03:00N 55°06' E 014°42'0 0.0
2018-May-16 02:30N 55°06' E 014°42'0 0.0
2018-May-16 02:00N 55°06' E 014°42'0 0.0
2018-May-16 01:30N 55°06' E 014°42'0 0.0
2018-May-16 01:00N 55°06' E 014°42'0 0.0
2018-May-16 00:30N 55°06' E 014°42'0 0.0
2018-May-16 00:00N 55°06' E 014°42'0 0.0
2018-May-15 23:30N 55°06' E 014°42'0 0.0
2018-May-15 23:00N 55°06' E 014°42'0 0.0
2018-May-15 22:30N 55°06' E 014°42'0 0.0
2018-May-15 22:00N 55°06' E 014°42'0 0.0
2018-May-15 21:30N 55°06' E 014°42'0 0.0
2018-May-15 21:00N 55°06' E 014°42'0 0.0
2018-May-15 20:30N 55°06' E 014°42'0 0.0
2018-May-15 20:00N 55°06' E 014°42'0 0.0
2018-May-15 19:30N 55°06' E 014°42'0 0.0
2018-May-15 19:00N 55°06' E 014°42'2 4.8
2018-May-15 18:30N 55°05' E 014°38'4 8.4
2018-May-15 18:00N 55°04' E 014°31'610.9
2018-May-15 17:29N 55°03' E 014°21'510.9
2018-May-15 17:00N 55°02' E 014°12'5 8.7
2018-May-15 16:28N 55°01' E 014°04'1 2.4
2018-May-15 15:52N 55°01' E 014°02'610.5
2018-May-15 15:19N 55°04' E 013°53'710.3
2018-May-15 14:38N 55°07' E 013°42'110.1
2018-May-15 14:30N 55°08' E 013°40'18 6.9
2018-May-15 11:52N 55°12' E 013°09'2 5.8
2018-May-15 11:29N 55°14' E 013°07'4 7.9
2018-May-15 11:00N 55°17' E 013°10'5 7.4
2018-May-15 10:20N 55°17' E 013°19'1 2.5
2018-May-15 09:54N 55°17' E 013°17'3 7.1
2018-May-15 09:30N 55°14' E 013°17'1 2.4
2018-May-15 09:01N 55°14' E 013°16'2 4.7
2018-May-15 08:30N 55°14' E 013°20'2 4.5
2018-May-15 08:01N 55°14' E 013°24'1 2.8
2018-May-15 07:30N 55°14' E 013°26'3 5.6
2018-May-15 07:00N 55°15' E 013°31'4 8.1
2018-May-15 06:29N 55°14' E 013°38'4 6.1
2018-May-15 05:47N 55°14' E 013°46'311.1
2018-May-15 05:30N 55°14' E 013°51'611.1
2018-May-15 05:00N 55°14' E 014°01'611.2
2018-May-15 04:30N 55°14' E 014°11'510.2
2018-May-15 04:00N 55°16' E 014°18'611.1
2018-May-15 03:30N 55°21' E 014°24'610.1
2018-May-15 02:57N 55°26' E 014°25'511.2
2018-May-15 02:30N 55°31' E 014°22'3 1.3
2018-May-15 00:32N 55°33' E 014°21'0 0.0
2018-May-15 00:14N 55°33' E 014°21'0 0.0
2018-May-14 23:59N 55°33' E 014°21'0 0.0
2018-May-14 23:29N 55°33' E 014°21'0 0.0
2018-May-14 22:56N 55°33' E 014°21'0 0.0
2018-May-14 18:53N 55°33' E 014°21'0 0.0
2018-May-14 18:17N 55°33' E 014°21'0 0.0
2018-May-14 17:47N 55°33' E 014°21'0 0.0
2018-May-14 17:18N 55°33' E 014°21'1 2.1
2018-May-14 17:00N 55°34' E 014°22'510.8
2018-May-14 16:30N 55°35' E 014°32'510.9
2018-May-14 16:01N 55°36' E 014°41'611.2
2018-May-14 15:30N 55°37' E 014°51'1 1.0
2018-May-14 15:00N 55°37' E 014°52'4 7.4
2018-May-14 14:30N 55°38' E 014°58'511.0
2018-May-14 14:01N 55°39' E 015°07'510.9
2018-May-14 13:30N 55°41' E 015°17'511.0
2018-May-14 13:00N 55°42' E 015°26'611.1
2018-May-14 12:31N 55°44' E 015°36'5 9.1
2018-May-14 12:01N 55°45' E 015°44'3 5.8
2018-May-14 11:30N 55°48' E 015°42'2 3.3
2018-May-14 11:01N 55°49' E 015°41'4 7.5
2018-May-14 10:30N 55°50' E 015°48'0 0.1
2018-May-14 10:01N 55°50' E 015°48'2 3.1
2018-May-14 09:30N 55°50' E 015°51'3 5.2
2018-May-14 09:00N 55°51' E 015°55'2 4.9
2018-May-14 08:30N 55°52' E 015°50'2 3.4
2018-May-14 08:01N 55°52' E 015°48'2 3.6
2018-May-14 07:30N 55°52' E 015°45'2 4.5
2018-May-14 07:00N 55°55' E 015°45'2 3.9
2018-May-14 06:30N 55°55' E 015°48'2 4.7
2018-May-14 06:00N 55°54' E 015°52'4 7.2
2018-May-14 05:30N 55°57' E 015°54'3 5.7
2018-May-14 05:01N 55°58' E 015°49'2 4.3
2018-May-14 04:28N 55°58' E 015°44'0 0.0
2018-May-14 03:58N 55°58' E 015°44'0 0.0
2018-May-14 03:28N 55°58' E 015°44'0 0.0
2018-May-14 02:58N 55°58' E 015°44'0 0.0
2018-May-14 02:28N 55°58' E 015°44'0 0.0
2018-May-14 01:58N 55°58' E 015°44'0 0.0
2018-May-14 01:28N 55°58' E 015°44'0 0.0
2018-May-14 00:58N 55°58' E 015°44'0 0.0
2018-May-14 00:28N 55°58' E 015°44'0 0.0
2018-May-13 23:58N 55°58' E 015°44'0 0.0
2018-May-13 23:28N 55°58' E 015°44'0 0.0
2018-May-13 22:58N 55°58' E 015°44'0 0.0
2018-May-13 22:28N 55°58' E 015°44'0 0.0
2018-May-13 21:58N 55°58' E 015°44'0 0.0
2018-May-13 21:25N 55°58' E 015°44'0 0.0
2018-May-13 20:58N 55°58' E 015°44'0 0.0
2018-May-13 20:28N 55°58' E 015°44'0 0.0
2018-May-13 19:58N 55°58' E 015°44'0 0.0
2018-May-13 19:28N 55°58' E 015°44'0 0.0
2018-May-13 18:58N 55°58' E 015°44'2 4.6
2018-May-13 18:31N 55°58' E 015°48'611.6
2018-May-13 18:01N 55°60' E 015°58'611.6
2018-May-13 17:31N 56°01' E 016°08'611.6
2018-May-13 17:01N 56°03' E 016°18'611.6
2018-May-13 16:31N 56°05' E 016°28'611.5
2018-May-13 16:00N 56°07' E 016°37'  

Dump ship's entire track history